Date,TemperatureHighF,TemperatureAvgF,TemperatureLowF,DewpointHighF,DewpointAvgF,DewpointLowF,HumidityHigh,HumidityAvg,HumidityLow,PressureMaxIn,PressureMinIn,WindSpeedMaxMPH,WindSpeedAvgMPH,GustSpeedMaxMPH,PrecipitationSumIn
2013-1-1,24.2,16.8,10.9,12.0,6.3,1.5,72,63,49,30.13,30.04,7,1,7,0.00
2013-1-2,30.1,20.4,10.7,14.9,9.5,1.5,71,63,49,30.12,30.00,8,2,8,0.01
2013-1-3,29.6,25.5,18.3,22.7,19.0,12.7,82,76,68,30.17,29.99,7,3,7,0.00
2013-1-4,35.2,24.4,14.5,22.8,16.7,8.3,80,73,59,30.15,30.02,11,3,11,0.01
2013-1-5,38.2,29.9,19.9,31.8,24.9,15.0,89,82,65,30.16,29.85,10,2,10,0.09
2013-1-6,35.4,29.4,21.0,31.9,23.3,16.1,87,78,70,30.24,29.81,9,2,9,0.02
2013-1-7,40.4,27.9,19.2,26.1,20.6,14.6,84,75,54,30.24,30.01,13,3,13,0.00
2013-1-8,43.1,34.3,27.3,31.3,26.7,22.3,83,74,60,30.08,29.92,10,2,10,0.00
2013-1-9,46.9,38.6,27.3,31.6,26.2,19.1,80,62,37,30.41,29.90,14,4,14,0.00
2013-1-10,41.7,35.7,24.0,35.2,28.9,17.6,89,76,65,30.43,29.83,7,2,7,0.53
2013-1-11,51.2,48.0,38.2,49.5,45.1,35.2,94,90,86,29.83,29.57,11,3,11,0.39
2013-1-12,51.7,43.6,30.5,47.1,35.8,25.1,86,74,59,29.91,29.62,12,3,12,0.02
2013-1-13,30.5,24.4,15.2,26.3,19.0,7.7,86,80,71,30.14,29.78,6,2,6,0.01
2013-1-14,26.7,18.0,11.6,14.9,9.7,5.5,77,70,59,30.35,30.14,5,1,5,0.00
2013-1-15,31.4,21.3,12.1,19.9,12.9,7.0,81,70,55,30.34,30.03,4,0,4,0.02
2013-1-16,35.9,27.2,15.7,26.5,18.7,10.1,82,71,51,30.03,29.71,13,3,13,0.00
2013-1-17,33.2,25.9,18.1,27.0,12.4,6.2,79,57,39,30.32,29.96,9,2,9,0.00
2013-1-18,43.5,31.4,15.9,28.7,21.1,7.9,74,66,54,30.34,29.81,19,5,19,0.00
2013-1-19,46.7,40.4,25.6,35.8,29.4,8.5,74,65,42,29.84,29.62,17,5,17,0.00
2013-1-20,25.6,15.9,12.5,9.5,2.4,0.0,59,55,48,30.21,29.81,11,3,11,0.00
2013-1-21,13.8,9.2,3.1,3.0,-3.0,-9.0,74,57,46,30.18,30.03,9,3,9,0.00
2013-1-22,11.4,5.4,-2.1,-3.8,-7.1,-11.6,65,56,47,30.28,30.17,7,2,7,0.00
2013-1-23,19.5,14.2,7.3,13.0,4.7,-5.5,77,65,55,30.24,30.00,10,2,10,0.00
2013-1-24,21.3,14.6,5.7,11.2,3.5,-4.4,66,61,55,30.52,30.24,8,2,8,0.00
2013-1-25,26.0,22.0,18.3,18.7,13.2,6.5,78,68,55,30.28,29.88,9,2,9,0.00
2013-1-26,28.2,20.4,11.4,16.6,10.5,4.3,75,65,52,30.30,30.08,5,1,5,0.07
2013-1-27,34.6,28.8,23.5,31.6,22.3,15.5,89,76,67,30.28,29.82,8,2,10,0.03
2013-1-28,46.7,41.3,34.8,45.1,38.3,31.6,95,89,80,29.89,29.71,8,2,8,0.14
2013-1-29,62.2,53.7,37.3,58.3,51.1,34.9,95,91,86,29.75,29.33,11,3,11,1.52
2013-1-30,41.3,32.5,20.2,39.2,30.0,14.5,94,90,78,29.53,29.13,11,3,11,0.40
2013-1-31,20.2,14.4,5.8,15.8,7.4,-0.4,84,73,63,30.04,29.53,10,4,10,0.00
2013-2-1,13.4,7.9,0.8,8.2,-0.2,-6.1,80,69,59,30.24,30.04,10,3,10,0.00
2013-2-2,22.8,15.5,8.0,19.5,10.0,1.5,87,79,71,30.08,29.92,8,1,8,0.00
2013-2-3,23.1,16.5,8.7,14.1,9.5,2.1,82,73,62,29.97,29.86,10,2,10,0.02
2013-2-4,28.2,22.3,13.8,24.0,18.0,8.0,88,83,77,29.94,29.78,9,1,9,0.00
2013-2-5,30.7,22.7,8.5,26.1,17.7,3.5,86,81,76,30.00,29.71,10,2,10,0.00
2013-2-6,37.0,28.0,10.3,28.1,21.0,5.6,85,75,63,30.15,30.00,8,1,8,0.09
2013-2-7,34.3,32.6,31.8,30.9,29.2,26.3,92,87,78,30.03,29.78,5,1,5,0.49
2013-2-8,32.3,27.3,24.0,30.2,23.8,20.7,92,86,82,30.26,29.86,7,2,8,0.00
2013-2-9,36.8,28.7,22.8,30.1,23.4,18.9,87,81,73,30.18,30.00,7,1,7,0.21
2013-2-10,40.8,32.6,25.1,38.3,29.0,21.9,91,87,83,30.00,29.52,8,2,8,0.20
2013-2-11,31.8,29.8,28.0,23.5,22.0,20.7,74,72,70,29.93,29.73,12,4,12,0.00
2013-2-12,28.9,25.9,21.5,21.7,19.3,16.8,84,76,72,30.02,29.82,9,2,9,0.00
2013-2-13,44.4,34.6,21.7,32.1,27.5,17.9,89,76,58,29.82,29.62,6,2,6,0.00
2013-2-14,38.6,35.7,30.9,32.0,27.9,20.5,82,73,60,29.89,29.54,10,3,10,0.00
2013-2-15,35.0,27.2,19.5,23.0,15.0,7.7,79,60,43,30.09,29.88,8,2,8,0.01
2013-2-16,22.4,16.8,11.2,9.1,5.0,1.3,68,59,50,30.10,30.02,8,2,8,0.00
2013-2-17,33.9,20.4,8.0,15.5,5.5,-0.6,70,54,37,30.12,29.92,8,1,8,0.00
2013-2-18,51.7,39.6,27.1,42.9,29.8,12.6,90,68,54,29.92,29.32,16,5,16,0.28
2013-2-19,17.7,14.9,11.2,9.8,6.4,1.3,84,68,62,30.07,29.65,13,5,13,0.00
2013-2-20,26.9,16.6,8.5,13.6,6.3,0.3,72,64,55,30.26,30.07,8,3,8,0.00
2013-2-21,29.6,25.1,17.7,24.5,19.0,9.9,85,77,69,30.28,29.94,9,2,9,0.01
2013-2-22,34.3,28.6,24.6,30.0,24.8,21.3,90,86,81,29.94,29.71,9,3,9,0.00
2013-2-23,31.9,26.8,22.4,23.8,19.8,16.1,84,75,60,29.86,29.79,8,3,9,0.00
2013-2-24,40.4,27.6,15.9,27.7,19.5,10.8,83,72,56,30.05,29.86,5,1,5,0.08
2013-2-25,42.6,30.3,17.4,34.6,23.6,12.8,85,76,64,30.09,29.90,4,1,4,0.00
2013-2-26,35.9,32.7,31.0,30.3,28.9,27.3,94,86,74,29.90,29.45,10,4,10,0.00
2013-2-27,35.0,33.1,31.8,32.7,31.1,29.8,94,92,92,29.61,29.43,7,2,7,0.61
2013-2-28,36.6,31.8,27.4,31.4,27.9,22.0,93,86,79,29.98,29.61,12,4,12,0.35
2013-3-1,31.0,27.0,25.6,25.3,22.4,21.0,85,82,78,30.09,29.95,10,3,10,0.00
2013-3-2,33.7,26.6,18.4,22.0,18.8,11.7,84,72,59,30.09,30.05,9,3,9,0.10
2013-3-3,33.4,22.5,11.8,23.1,13.0,6.3,80,67,51,30.06,29.99,7,1,7,0.21
2013-3-4,33.9,26.2,13.4,25.7,19.2,7.8,83,75,66,30.04,29.93,6,2,6,0.03
2013-3-5,32.7,31.2,28.7,29.1,27.3,25.4,92,86,77,29.93,29.74,10,3,10,0.01
2013-3-6,38.2,31.9,27.6,31.0,26.9,23.7,89,81,73,30.21,29.89,12,3,12,0.12
2013-3-7,44.0,31.9,24.0,32.3,24.2,19.1,82,73,59,30.33,30.19,5,1,5,0.22
2013-3-8,40.8,31.2,20.1,32.9,24.5,16.3,87,76,66,30.39,30.21,7,1,7,0.00
2013-3-9,45.4,37.3,28.3,34.0,29.5,21.9,83,73,62,30.21,29.79,11,2,11,0.03
2013-3-10,47.4,43.2,39.5,45.1,39.7,34.3,93,88,67,29.76,29.55,8,2,10,0.87
2013-3-11,46.9,39.1,32.8,44.7,36.6,29.3,93,91,87,29.68,29.45,8,2,8,0.13
2013-3-12,38.6,32.2,26.9,30.3,26.4,22.5,89,80,61,29.91,29.68,10,3,10,0.02
2013-3-13,26.7,25.0,24.0,22.5,20.5,19.5,84,83,82,29.94,29.91,6,3,6,0.00
2013-3-14,32.1,31.9,31.8,27.0,26.7,26.3,82,81,80,30.01,29.98,6,2,6,0.00
2013-3-15,44.9,35.7,30.7,37.2,30.7,26.2,89,82,68,30.00,29.68,5,1,5,0.18
2013-3-16,34.5,33.2,30.1,32.1,29.5,22.5,91,87,74,30.04,29.65,6,2,6,0.00
2013-3-17,36.4,31.6,26.4,24.6,22.3,17.8,75,68,60,30.13,29.92,8,3,8,0.01
2013-3-18,35.7,31.0,22.8,32.0,25.5,13.7,87,80,68,29.92,29.51,14,3,14,0.09
2013-3-19,33.6,25.0,17.0,15.2,12.4,9.0,74,59,43,29.95,29.67,13,6,13,0.02
2013-3-20,26.5,20.8,14.3,12.0,6.9,2.7,68,55,44,29.98,29.91,11,4,11,0.00
2013-3-21,35.2,24.4,13.2,16.3,10.0,3.5,67,55,43,29.95,29.90,8,2,8,0.00
2013-3-22,40.6,26.1,17.5,20.8,14.1,9.1,72,61,40,29.99,29.92,5,1,5,0.00
2013-3-23,44.7,32.6,22.6,31.3,22.2,16.5,80,66,50,30.04,29.94,5,1,5,0.00
2013-3-24,40.2,34.4,31.8,29.2,26.7,23.9,82,73,62,29.95,29.60,14,4,14,0.00
2013-3-25,38.6,34.3,32.1,29.3,26.0,23.5,77,71,65,29.98,29.62,13,5,13,0.00
2013-3-26,45.1,35.9,29.1,29.3,24.8,21.9,76,65,47,30.15,29.97,8,2,8,0.00
2013-3-27,45.1,37.7,28.5,28.3,23.2,17.0,73,57,41,30.22,30.15,6,1,6,0.00
2013-3-28,53.4,36.9,24.7,31.5,21.8,16.7,72,56,34,30.24,30.19,5,1,5,0.00
2013-3-29,58.4,39.4,27.1,33.6,24.2,19.7,77,57,32,30.23,30.15,6,1,6,0.00
2013-3-30,61.3,44.8,26.0,38.5,30.2,20.4,83,59,38,30.16,29.75,10,2,12,0.00
2013-3-31,58.0,47.9,36.8,41.1,36.0,23.4,83,65,37,29.80,29.61,12,4,12,0.00
2013-4-1,42.6,35.2,28.2,24.0,16.2,11.4,68,47,32,30.09,29.79,9,2,9,0.00
2013-4-2,45.6,34.8,24.7,21.8,13.7,10.1,62,44,25,30.21,30.08,10,2,10,0.00
2013-4-3,45.4,32.6,20.6,26.8,17.0,12.4,72,54,36,30.36,30.21,7,1,7,0.00
2013-4-4,60.9,44.4,26.5,30.7,23.4,16.0,67,46,27,30.22,29.87,11,2,11,0.00
2013-4-5,48.0,40.7,35.2,32.7,27.6,23.2,75,60,48,30.16,29.91,12,3,12,0.00
2013-4-6,68.1,51.9,35.7,47.1,34.2,26.4,78,53,32,30.08,29.51,17,5,17,0.01
2013-4-7,57.7,48.0,38.1,47.5,37.2,29.7,82,67,49,29.90,29.51,11,3,11,0.02
2013-4-8,63.3,47.9,38.6,53.1,40.4,31.1,92,76,59,29.92,29.47,13,3,16,0.18
2013-4-9,48.9,40.2,37.9,44.4,36.8,34.6,91,88,81,29.94,29.77,12,4,12,0.01
2013-4-10,39.7,38.0,36.4,37.8,35.9,34.2,94,92,90,30.02,29.75,16,5,16,1.04
2013-4-11,37.9,37.0,36.4,36.0,35.1,34.5,93,93,93,29.82,29.68,7,4,7,0.29
2013-4-12,42.6,38.7,37.5,37.9,33.6,31.0,87,82,77,29.75,29.63,8,4,8,0.00
2013-4-13,47.2,39.1,34.6,31.3,28.2,25.5,78,66,48,29.90,29.73,9,3,9,0.00
2013-4-14,62.0,46.2,35.7,48.1,37.1,28.6,78,70,59,29.92,29.58,11,2,11,0.00
2013-4-15,68.5,57.2,44.4,54.4,48.3,40.0,86,73,52,29.90,29.58,20,4,20,0.27
2013-4-16,58.4,45.5,38.2,43.6,36.8,32.1,88,72,53,30.19,29.86,6,1,6,0.00
2013-4-17,44.7,41.8,39.9,42.5,37.4,33.2,92,85,74,30.20,29.71,11,2,11,0.16
2013-4-18,61.5,50.4,42.9,58.0,47.8,36.2,95,91,77,29.77,29.32,16,3,16,0.04
2013-4-19,41.8,38.3,35.4,36.1,29.8,27.0,80,71,58,29.79,29.39,10,5,10,0.00
2013-4-20,47.6,38.7,29.1,27.2,23.0,17.9,76,55,35,30.34,29.81,6,2,6,0.00
2013-4-21,55.0,44.1,32.7,31.6,26.4,21.9,66,51,39,30.43,30.23,7,2,7,0.00
2013-4-22,67.4,55.9,42.6,39.8,33.9,28.5,58,45,32,30.23,29.96,9,2,9,0.00
2013-4-23,60.0,48.9,37.9,49.0,41.4,34.2,89,76,57,29.96,29.80,7,2,7,0.00
2013-4-24,56.2,45.0,36.1,35.1,30.7,26.9,90,60,37,30.01,29.84,8,3,8,0.15
2013-4-25,55.3,45.5,36.6,36.3,31.4,26.5,84,59,40,30.23,29.94,10,3,10,0.19
2013-4-26,69.9,54.1,33.9,45.4,36.8,26.5,76,54,37,30.25,30.12,14,4,14,0.00
2013-4-27,70.5,57.7,44.7,52.3,43.0,38.0,80,59,43,30.20,29.92,7,2,7,0.00
2013-4-28,65.6,55.2,49.2,53.1,45.8,39.6,82,71,61,29.92,29.75,6,1,6,0.00
2013-4-29,76.8,63.3,47.6,54.2,50.3,42.7,89,65,43,29.82,29.68,12,3,12,0.00
2013-4-30,88.3,73.5,61.6,60.9,56.1,51.8,76,56,32,29.86,29.68,13,5,13,0.00
2013-5-1,87.6,74.3,51.9,60.7,54.4,42.8,73,52,31,30.07,29.86,9,2,9,0.00
2013-5-2,51.7,45.9,40.8,43.1,38.4,35.4,82,75,66,30.15,30.07,13,6,13,0.00
2013-5-3,45.1,41.6,39.0,42.6,38.2,34.7,91,88,81,30.07,29.87,14,4,14,0.00
2013-5-4,65.4,53.4,44.9,53.5,44.7,40.1,91,73,55,29.96,29.87,7,2,7,0.00
2013-5-5,62.7,57.2,51.9,46.6,42.4,38.5,63,57,52,29.95,29.90,9,3,9,0.00
2013-5-6,63.4,55.3,49.6,43.0,40.1,36.2,72,57,43,29.97,29.90,9,2,9,0.00
2013-5-7,75.0,57.4,43.3,48.8,40.3,35.5,78,55,38,29.98,29.91,7,1,7,0.00
2013-5-8,84.1,61.4,44.4,56.3,43.4,38.0,82,55,34,29.95,29.88,5,1,5,0.00
2013-5-9,72.1,57.1,44.0,58.8,46.3,39.6,89,68,49,29.89,29.77,6,1,6,0.00
2013-5-10,45.8,44.1,42.6,43.1,40.7,38.1,92,88,81,29.89,29.70,14,4,14,0.00
2013-5-11,59.1,50.6,43.6,51.1,38.1,26.2,89,65,36,29.93,29.72,12,3,12,0.00
2013-5-12,55.5,46.4,38.8,33.5,28.5,25.1,67,51,32,30.01,29.93,9,2,9,0.00
2013-5-13,62.0,48.6,35.4,42.5,34.2,28.6,79,59,43,30.09,29.90,7,1,7,0.00
2013-5-14,88.1,69.2,51.6,58.2,48.5,35.3,61,48,34,29.90,29.56,11,3,11,0.00
2013-5-15,84.9,72.5,56.6,51.1,48.8,46.1,70,45,29,29.76,29.69,9,2,9,0.00
2013-5-16,56.6,53.7,51.6,47.7,42.9,38.8,78,67,57,29.90,29.74,5,0,5,0.00
2013-5-17,63.3,56.1,51.2,50.2,44.7,39.0,73,65,55,29.99,29.87,10,1,10,0.00
2013-5-18,78.6,64.9,51.2,60.0,52.5,44.0,79,65,48,29.97,29.87,4,1,4,0.00
2013-5-19,86.5,70.0,54.8,67.5,58.4,49.9,85,68,51,29.88,29.68,7,1,7,0.00
2013-5-20,91.5,80.0,68.1,67.1,61.1,53.9,84,56,29,29.70,29.60,12,3,12,0.00
2013-5-21,84.0,73.7,63.4,66.2,61.4,58.5,87,67,46,29.67,29.56,15,3,15,0.00
2013-5-22,77.1,64.9,50.5,69.2,59.2,47.3,90,82,62,29.69,29.54,8,2,8,0.00
2013-5-23,51.9,47.7,41.8,49.4,41.4,34.0,92,79,61,30.20,29.68,18,6,18,0.00
2013-5-24,60.2,48.2,39.0,43.4,35.5,31.0,77,62,44,30.34,30.19,8,2,8,0.00
2013-5-25,59.5,48.8,37.7,45.3,39.1,31.8,83,70,56,30.30,30.20,5,1,5,0.00
2013-5-26,70.1,54.2,38.2,53.3,43.0,33.7,87,67,48,30.22,30.05,5,1,5,0.00
2013-5-27,56.2,53.7,50.3,50.4,48.2,41.7,87,81,72,30.06,29.78,8,1,8,0.00
2013-5-28,77.8,65.7,51.6,68.7,61.2,48.0,93,86,71,29.79,29.62,10,2,10,0.05
2013-5-29,84.5,73.2,64.2,68.7,64.0,60.8,90,74,57,29.86,29.68,7,2,7,0.00
2013-5-30,86.3,76.6,65.2,71.2,65.7,60.0,84,69,56,29.84,29.69,14,4,14,0.24
2013-5-31,81.1,72.6,64.0,67.0,63.8,59.4,91,75,58,29.78,29.62,12,3,12,0.30
2013-6-1,79.3,70.4,63.1,67.2,62.3,58.7,88,76,60,29.65,29.56,10,4,10,0.15
2013-6-2,63.1,53.2,41.7,59.2,48.7,37.9,90,85,75,29.95,29.60,6,1,6,0.05
2013-6-3,72.1,56.1,38.2,54.8,43.1,35.5,92,65,38,30.01,29.94,5,1,5,0.00
2013-6-4,74.2,58.9,45.1,54.7,46.1,40.2,86,64,43,30.08,29.99,5,1,5,0.00
2013-6-5,73.9,58.5,52.1,55.3,48.5,44.1,81,70,49,30.03,29.86,6,1,6,0.01
2013-6-6,60.0,54.9,51.6,53.6,49.6,45.0,89,82,70,29.87,29.80,8,2,8,0.31
2013-6-7,67.0,58.2,49.9,53.5,46.5,37.5,82,66,41,29.87,29.81,8,2,8,0.00
2013-6-8,79.8,60.1,44.0,56.7,46.2,39.0,86,63,35,29.92,29.81,4,1,4,0.00
2013-6-9,82.0,67.2,51.9,64.4,55.8,46.8,84,68,53,29.93,29.72,5,1,5,0.00
2013-6-10,76.9,66.3,60.2,68.2,59.6,55.1,90,79,65,29.78,29.66,5,1,5,0.30
2013-6-11,87.9,74.2,57.9,68.9,61.3,54.3,90,67,46,29.83,29.71,7,1,7,0.00
2013-6-12,76.8,67.6,59.8,66.3,60.2,56.8,91,78,64,29.83,29.46,9,1,9,0.05
2013-6-13,71.2,65.2,56.2,59.2,53.8,49.5,93,67,57,29.97,29.57,11,4,11,0.00
2013-6-14,73.0,63.8,53.5,57.4,52.3,47.5,82,67,53,30.05,29.93,7,2,7,0.00
2013-6-15,82.5,66.7,53.4,68.5,59.8,47.5,89,79,61,29.97,29.76,4,1,4,0.00
2013-6-16,74.4,72.6,70.8,66.7,64.7,63.0,77,76,75,29.79,29.76,7,4,7,0.00
2013-6-17,92.6,67.9,56.8,57.5,53.8,52.0,85,66,29,29.87,29.74,8,2,8,0.00
2013-6-18,67.8,59.2,54.4,55.7,51.7,46.9,91,77,60,29.98,29.84,10,4,10,0.00
2013-6-19,80.4,64.8,50.5,60.0,49.8,43.0,87,61,32,30.05,29.96,5,1,5,0.00
2013-6-20,89.4,65.8,52.5,64.6,53.9,44.9,86,68,42,30.05,30.00,6,1,6,0.00
2013-6-21,84.0,71.9,65.2,68.4,63.5,57.5,87,75,58,30.07,29.77,12,2,12,0.00
2013-6-22,84.7,73.8,68.1,73.3,66.9,63.3,90,79,63,30.05,29.86,7,2,7,0.00
2013-6-23,93.5,79.3,67.6,72.7,66.9,62.4,84,67,49,29.95,29.83,10,3,10,0.00
2013-6-24,90.1,75.6,67.4,70.5,66.5,62.6,86,74,50,29.97,29.75,10,2,10,0.00
2013-6-25,84.5,71.5,65.6,76.3,66.9,62.3,91,86,74,29.90,29.73,8,1,8,0.00
2013-6-26,79.8,70.5,65.1,70.6,65.9,61.4,94,86,72,29.76,29.65,8,1,8,0.00
2013-6-27,93.7,83.9,68.8,76.2,68.9,63.8,85,62,41,29.69,29.59,10,2,10,0.00
2013-6-28,86.3,74.7,65.1,64.6,61.7,57.1,87,66,39,29.61,29.51,9,2,9,0.00
2013-6-29,69.4,64.0,62.0,62.4,59.2,56.5,91,85,71,29.69,29.51,12,4,12,0.00
2013-6-30,71.2,65.7,60.4,59.3,55.3,47.0,87,70,47,29.90,29.68,12,5,12,0.00
2013-7-1,72.6,65.9,59.5,57.9,55.2,51.8,82,69,57,29.99,29.89,11,4,11,0.00
2013-7-2,72.1,63.4,59.8,57.3,54.4,51.2,85,73,57,30.00,29.96,6,2,6,0.00
2013-7-3,72.4,63.9,60.2,65.3,58.9,55.9,89,84,75,29.98,29.92,7,1,7,0.00
2013-7-4,85.9,71.9,54.4,69.8,61.3,51.8,93,71,49,30.00,29.93,7,1,7,0.00
2013-7-5,88.8,76.0,61.1,69.8,62.6,56.1,86,65,36,29.99,29.91,6,1,6,0.00
2013-7-6,91.5,76.3,62.7,73.3,65.8,59.1,91,71,54,29.97,29.88,5,1,5,0.00
2013-7-7,93.7,81.8,71.5,70.7,67.5,64.1,81,63,45,29.92,29.84,10,2,10,0.00
2013-7-8,91.9,78.9,71.5,76.7,70.6,67.1,90,76,60,29.92,29.82,12,3,12,0.00
2013-7-9,89.2,78.0,67.0,80.7,72.3,64.6,93,83,67,29.89,29.75,8,1,8,0.00
2013-7-10,89.4,78.2,63.3,74.2,67.6,57.6,89,71,52,29.90,29.73,9,2,9,0.00
2013-7-11,84.9,71.7,59.3,65.0,57.3,53.9,88,64,39,30.01,29.90,5,1,5,0.00
2013-7-12,87.2,70.8,52.6,68.1,57.9,48.2,87,66,45,30.05,29.99,3,1,3,0.00
2013-7-13,89.9,72.9,58.0,71.4,60.7,54.0,88,68,43,30.06,30.00,4,1,4,0.00
2013-7-14,93.3,80.2,69.2,72.3,67.3,60.4,82,66,50,30.12,30.05,5,1,5,0.00
2013-7-15,96.9,81.1,70.3,79.5,71.5,65.1,89,74,54,30.17,30.12,4,1,4,0.00
2013-7-16,96.7,85.3,72.8,77.4,73.2,69.0,89,68,49,30.20,30.13,6,1,6,0.00
2013-7-17,99.3,87.4,76.4,78.0,72.8,69.2,79,63,45,30.21,30.06,5,1,5,0.00
2013-7-18,100.0,88.6,77.5,77.8,72.5,70.1,80,61,39,30.08,29.84,8,2,8,0.00
2013-7-19,99.8,88.1,73.7,74.0,70.5,66.2,82,58,36,29.84,29.64,11,4,11,0.00
2013-7-20,91.2,79.1,67.8,71.1,66.8,62.2,85,68,44,29.86,29.70,4,1,4,0.00
2013-7-21,90.8,76.0,66.3,72.7,65.9,60.0,91,72,50,29.87,29.75,5,1,5,0.00
2013-7-22,90.8,79.2,67.8,76.6,68.9,61.9,93,72,51,29.78,29.63,9,1,9,0.00
2013-7-23,79.1,72.0,64.2,66.9,60.4,54.7,79,67,56,29.88,29.58,10,3,10,0.00
2013-7-24,76.9,67.7,57.9,57.4,52.5,49.3,76,59,46,29.97,29.88,5,2,5,0.00
2013-7-25,84.9,69.0,52.6,60.2,55.3,48.1,88,64,41,30.00,29.93,2,1,2,0.00
2013-7-26,70.5,67.2,61.3,64.9,60.1,56.9,89,78,64,29.93,29.77,6,1,6,0.00
2013-7-27,66.7,61.3,57.7,57.9,52.0,47.4,91,72,56,29.81,29.76,5,2,5,0.00
2013-7-28,74.2,62.9,55.0,52.8,49.5,46.9,76,62,45,29.90,29.74,7,2,7,0.00
2013-7-29,77.1,66.2,56.2,60.2,54.6,49.6,83,67,51,30.07,29.89,5,1,5,0.00
2013-7-30,80.0,66.5,54.1,66.5,59.2,50.3,90,78,58,30.08,29.97,4,0,4,0.00
2013-7-31,78.9,69.1,63.4,67.2,63.7,59.8,90,83,66,29.97,29.83,7,1,7,0.00
2013-8-1,84.9,71.4,58.2,69.2,57.6,52.5,92,66,38,29.87,29.83,9,2,9,0.00
2013-8-2,88.3,74.5,60.9,69.4,61.9,54.1,86,66,43,29.84,29.74,4,1,4,0.00
2013-8-3,82.5,73.9,61.1,64.6,57.0,52.3,83,57,39,30.00,29.84,7,1,7,0.00
2013-8-4,81.1,67.7,56.2,64.8,56.7,51.8,88,69,51,30.10,30.00,4,1,4,0.00
2013-8-5,78.2,66.6,56.6,61.8,57.2,52.5,86,72,53,30.02,29.78,5,1,5,0.00
2013-8-6,85.6,75.0,65.8,71.5,67.2,61.3,88,77,62,29.78,29.72,5,1,5,0.00
2013-8-7,92.1,77.5,66.7,75.4,69.1,61.1,88,76,53,29.85,29.68,6,2,6,0.00
2013-8-8,84.1,71.5,64.0,65.5,58.3,52.5,87,65,44,29.93,29.85,7,1,7,0.00
2013-8-9,86.7,73.6,57.5,64.0,59.6,52.7,86,63,45,29.92,29.86,3,1,3,0.00
2013-8-10,88.6,74.1,63.6,70.0,62.4,57.6,86,68,49,30.02,29.92,3,1,3,0.00
2013-8-11,85.8,70.4,56.8,65.2,59.3,52.9,88,69,45,30.02,29.92,4,1,4,0.00
2013-8-12,85.8,74.3,67.0,69.7,65.4,62.6,88,75,54,29.92,29.77,4,1,4,0.00
2013-8-13,73.2,66.8,58.8,63.0,53.7,50.2,87,63,49,30.04,29.83,11,2,11,0.00
2013-8-14,77.5,65.7,56.1,55.7,51.4,48.8,79,61,45,30.11,30.03,6,1,6,0.00
2013-8-15,80.4,66.1,55.3,59.1,53.6,48.1,81,66,45,30.05,29.98,5,1,5,0.00
2013-8-16,86.1,68.8,53.4,65.0,56.1,49.3,88,66,44,30.08,30.00,4,1,4,0.00
2013-8-17,86.7,66.9,55.0,68.5,56.4,50.7,88,72,42,30.13,30.06,3,0,3,0.00
2013-8-18,86.8,71.0,57.0,70.9,58.7,52.8,88,68,45,30.10,29.99,5,1,5,0.00
2013-8-19,87.2,72.1,56.4,66.3,59.5,52.3,87,67,43,30.01,29.91,2,1,2,0.00
2013-8-20,91.2,76.0,62.7,68.8,61.8,58.2,87,64,39,30.00,29.92,6,1,6,0.00
2013-8-21,93.7,80.8,66.9,69.3,64.9,59.4,82,61,41,29.97,29.84,7,2,7,0.00
2013-8-22,79.5,72.0,64.9,69.8,65.7,61.4,89,81,66,30.03,29.89,4,1,4,0.00
2013-8-23,85.8,71.3,60.0,69.3,59.2,54.1,90,69,40,30.07,29.99,3,1,3,0.00
2013-8-24,88.6,72.7,56.2,68.0,59.3,52.1,89,66,46,30.14,30.07,5,1,5,0.00
2013-8-25,92.4,79.4,64.9,69.4,62.7,54.1,73,57,45,30.13,30.01,7,2,7,0.00
2013-8-26,93.3,82.1,72.1,73.2,67.9,61.4,75,62,49,30.03,29.88,5,2,5,0.00
2013-8-27,97.6,86.5,76.9,74.6,71.1,68.8,77,61,41,29.89,29.71,12,3,12,0.00
2013-8-28,84.1,75.5,70.6,70.7,67.9,66.1,87,77,59,29.93,29.71,8,3,8,0.00
2013-8-29,90.6,77.0,65.8,76.7,68.2,62.8,91,75,56,29.97,29.87,3,0,3,0.00
2013-8-30,97.3,77.3,65.4,75.1,67.8,61.7,89,75,45,29.87,29.64,7,2,7,0.00
2013-8-31,79.5,73.1,69.4,70.0,66.4,64.4,86,80,70,29.75,29.68,4,1,4,0.00
2013-9-1,87.9,76.1,65.1,71.7,66.6,61.8,90,74,54,29.71,29.61,6,1,6,0.00
2013-9-3,77.8,71.9,57.0,59.2,57.2,51.9,83,61,52,29.97,29.90,4,1,4,0.00
2013-9-4,85.8,69.1,53.0,62.1,56.1,48.9,88,66,39,30.00,29.92,4,1,4,0.00
2013-9-5,78.2,69.1,58.0,63.8,55.2,47.8,86,63,45,30.15,29.99,4,1,4,0.00
2013-9-6,88.6,73.4,54.4,66.5,59.2,48.1,85,63,42,30.11,29.89,7,1,7,0.00
2013-9-7,89.9,75.3,66.9,68.8,63.8,59.9,83,69,41,29.89,29.77,8,2,8,0.00
2013-9-8,77.5,72.7,68.7,68.5,66.0,63.8,86,79,69,29.92,29.83,8,2,8,0.00
2013-9-9,95.8,82.1,68.3,75.0,69.8,63.1,85,68,49,29.85,29.68,9,2,9,0.00
2013-9-10,97.3,87.3,76.4,71.3,65.7,63.4,66,50,35,29.87,29.73,13,3,13,0.00
2013-9-11,92.6,81.3,73.5,71.6,66.2,63.3,76,60,45,29.94,29.85,8,2,8,0.00
2013-9-12,83.4,70.9,62.0,70.3,60.1,52.1,87,70,37,29.95,29.81,15,3,15,0.00
2013-9-13,67.6,59.9,51.2,54.6,46.9,42.0,74,63,51,30.05,29.95,14,4,14,0.00
2013-9-14,74.6,60.4,46.0,53.7,44.7,40.5,83,59,34,30.04,29.90,5,1,5,0.00
2013-9-15,61.1,57.2,53.2,56.2,50.7,44.1,89,79,62,30.03,29.88,3,0,3,0.00
2013-9-16,63.4,56.7,50.5,55.4,50.3,44.8,86,79,65,30.22,30.03,10,3,10,0.00
2013-9-17,64.0,63.6,63.4,55.3,54.8,54.3,73,73,72,30.02,29.99,1,1,1,0.00
2013-9-18,82.2,69.0,58.6,65.5,58.4,51.2,81,69,54,29.99,29.79,6,2,6,0.00
2013-9-19,80.5,73.0,68.7,71.4,67.0,61.8,90,81,73,29.84,29.65,5,2,5,0.00
2013-9-20,77.5,69.8,59.5,67.0,60.7,51.2,86,73,59,29.70,29.62,8,2,8,0.00
2013-9-21,69.9,58.4,48.3,52.9,47.3,41.8,84,68,48,29.82,29.68,8,2,8,0.00
2013-9-22,69.2,56.1,46.2,54.6,46.1,41.3,85,70,53,29.93,29.82,5,1,5,0.00
2013-9-23,67.8,59.2,51.4,52.6,48.7,44.6,81,69,56,30.00,29.91,4,1,4,0.00
2013-9-25,69.7,62.9,55.7,55.4,52.1,48.8,84,68,59,29.85,29.82,4,1,4,0.00
2013-9-26,77.7,61.3,48.1,64.4,52.0,44.1,90,73,48,29.97,29.84,3,1,3,0.00
2013-9-27,80.4,63.7,47.4,61.7,52.4,43.4,89,69,48,30.04,29.94,3,1,3,0.00
2013-9-28,85.0,71.1,53.0,62.4,55.8,48.0,84,60,40,29.96,29.76,10,2,10,0.00
2013-9-29,69.6,60.9,53.0,62.5,52.0,45.8,88,73,55,29.94,29.79,5,1,5,0.00
2013-9-30,74.1,59.9,48.7,56.2,49.7,42.2,81,70,44,29.88,29.74,5,1,5,0.00
2013-10-1,78.2,68.7,62.0,64.0,59.8,53.1,87,74,59,29.83,29.75,6,2,6,0.00
2013-10-2,73.9,66.9,59.5,62.1,56.3,50.3,81,69,52,29.98,29.84,3,1,3,0.00
2013-10-3,75.3,67.8,60.9,68.8,62.3,54.6,88,83,77,29.87,29.73,5,2,5,0.00
2013-10-4,72.8,69.2,66.7,66.5,63.3,61.5,86,81,75,29.87,29.76,4,1,4,0.00
2013-10-5,78.9,70.0,63.6,70.5,65.1,59.0,90,84,74,29.84,29.63,5,1,5,0.00
2013-10-6,68.5,59.0,50.7,63.8,48.2,40.4,85,68,49,29.66,29.56,5,2,5,0.00
2013-10-7,67.8,55.7,48.9,48.1,44.5,40.2,81,67,44,29.94,29.63,5,2,5,0.00
2013-10-8,74.2,59.5,46.9,54.7,48.2,41.1,82,68,44,30.05,29.95,4,1,4,0.00
2013-10-10,70.1,63.0,50.7,56.5,53.1,45.4,82,70,59,30.04,29.92,4,1,4,0.00
2013-10-11,71.9,61.7,52.3,57.5,52.1,46.6,82,71,57,29.95,29.84,5,1,5,0.00
2013-10-12,69.2,62.3,52.8,61.7,54.3,46.2,85,75,68,30.03,29.84,6,2,6,0.00
2013-10-13,63.8,53.2,44.9,45.9,42.1,37.8,80,67,39,30.26,30.04,5,1,5,0.00
2013-10-14,62.9,54.4,44.5,48.7,44.6,37.8,80,70,54,30.26,30.02,4,1,4,0.00
2013-10-15,62.0,58.4,54.4,58.1,51.3,45.3,88,77,71,30.00,29.63,5,2,5,0.00
2013-10-16,55.5,52.6,49.6,47.1,44.9,42.0,80,75,72,29.79,29.69,6,2,6,0.00
2013-10-17,52.5,50.7,44.4,47.9,45.3,39.2,86,82,73,29.78,29.68,4,1,4,0.00
2013-10-18,50.3,46.4,41.7,42.5,39.4,36.7,83,77,68,29.82,29.69,3,1,3,0.00
2013-10-19,54.1,48.2,44.7,40.3,38.2,34.5,78,69,49,29.79,29.64,7,2,7,0.00
2013-10-20,57.9,50.0,39.5,47.5,41.7,33.6,81,73,64,29.74,29.59,2,1,2,0.00
2013-10-21,55.0,47.0,39.3,47.0,33.4,25.7,74,59,44,29.82,29.64,6,2,6,0.00
2013-10-22,45.3,40.0,34.6,33.9,28.7,24.8,77,64,50,29.84,29.77,5,1,5,0.00
2013-10-23,45.4,39.5,34.3,31.2,27.5,23.3,77,63,43,29.87,29.76,4,1,4,0.00
2013-10-24,45.1,40.1,37.0,28.6,26.2,22.0,67,58,45,30.14,29.86,7,2,7,0.00
2013-10-25,51.4,41.8,31.8,29.5,26.6,23.2,70,56,40,30.25,29.88,10,2,10,0.00
2013-10-26,53.4,47.4,40.0,36.2,29.6,26.2,64,50,43,29.93,29.69,9,3,9,0.00
2013-10-27,54.4,43.3,32.8,32.8,29.7,25.5,75,60,42,29.92,29.82,6,1,6,0.00
2013-10-28,52.6,48.1,44.0,42.0,39.8,36.8,78,73,64,30.23,30.12,5,3,5,0.00
2013-10-29,54.8,49.3,45.4,43.5,41.3,38.5,78,74,64,30.23,30.01,2,1,2,0.00
2013-10-30,58.4,53.4,44.9,54.9,47.9,39.1,89,82,73,30.00,29.61,5,1,5,0.00
2013-10-31,62.7,58.9,49.8,59.4,55.3,43.9,91,88,79,29.61,29.08,7,2,7,0.00
2013-11-1,49.6,47.4,45.1,43.3,40.9,37.8,86,78,72,29.59,29.23,8,2,8,0.00
2013-11-2,48.3,45.0,40.8,42.9,38.8,36.5,87,79,70,29.99,29.59,5,1,5,0.00
2013-11-3,51.7,44.0,34.6,41.9,36.8,29.1,86,76,67,30.15,29.99,5,1,5,0.00
2013-11-4,56.4,50.6,45.4,43.4,39.8,36.6,75,67,52,30.13,29.96,7,3,7,0.00
2013-11-5,55.5,53.6,51.9,48.9,46.2,43.2,84,76,69,30.11,29.82,6,2,6,0.00
2013-11-6,56.4,49.4,38.8,53.2,44.1,27.9,89,82,67,30.02,29.63,8,3,8,0.00
2013-11-7,44.0,38.8,34.3,32.1,29.2,26.6,74,68,54,30.07,30.02,5,1,5,0.00
2013-11-8,46.7,36.8,31.2,33.4,29.0,25.5,80,73,59,30.17,30.05,3,1,3,0.00
2013-11-9,57.0,49.3,42.6,40.0,35.8,24.2,70,60,46,29.94,29.68,12,5,12,0.00
2013-11-10,51.0,43.6,37.5,31.3,29.0,24.8,66,56,45,30.16,29.94,7,2,7,0.00
2013-11-11,46.9,38.1,26.9,36.1,28.0,16.6,86,67,57,30.34,29.92,10,3,10,0.00
2013-11-12,35.2,28.8,25.3,19.0,16.9,15.0,70,61,45,30.53,30.34,9,2,9,0.00
2013-11-13,41.1,31.9,23.8,21.1,16.4,-5.7,69,54,29,30.41,29.99,13,4,13,0.00
2013-11-14,48.3,40.9,33.9,27.5,23.2,8.6,57,50,30,29.99,29.76,13,4,13,0.00
2013-11-15,53.0,44.7,40.0,50.0,29.7,12.8,99,56,30,29.83,29.78,8,2,8,0.00
2013-11-16,59.7,50.2,43.8,59.4,49.1,36.0,99,96,73,29.80,29.43,15,4,15,0.00
2013-11-17,66.9,60.9,56.8,66.6,60.6,56.5,99,99,95,29.43,29.05,11,5,11,0.00
2013-12-29,26.0,19.9,12.3,16.3,10.3,2.5,67,66,64,30.12,29.96,6,2,6,0.00
2013-12-30,14.5,8.2,2.2,2.6,-1.8,-6.5,66,63,56,30.25,30.12,4,1,4,0.00
2013-12-31,14.3,10.8,4.2,7.1,3.8,-2.8,78,73,67,30.28,30.17,5,1,5,0.00
2014-1-1,22.0,20.4,11.8,18.2,16.1,6.3,85,83,78,30.23,30.12,6,3,6,0.00
2014-1-2,21.9,16.7,4.4,17.3,10.9,-2.9,84,78,70,30.33,30.05,8,4,8,0.00